57分钟前
罗盘
风向 的 风向 170° 傑克遜斯國際機場 14L/32R
风向 到 风: 15 千吨, 阵阵 20 千吨, 4 beaufort
0 0 0.17778093859221 500 0.32299085377319 1.500 0.47075341907445 3.000 0.62138884920159 5.000 0.8022287624727 8.000 0.90566318494517 10.000
SCT 2.500 ft
METAR AYPY 210400Z 17015G20KT 9999 HZ SCT025 31/25 Q1008

METAR定义 | 嵌入

24小时趋势

航班类别VFRLIFR
温度33 °C24 °C
风速15 千吨0 千吨
能见度10 公里+0 米

更多历史数据

下载我们的安卓应用程序

从你的主屏幕上轻松地访问你的航空天气。
只需一次付费,您就可以获得无广告的体验。

您会帮助我们保持Metar-Taf.com正常运行吗?
您的贡献有助于网站的进一步开发并支付费用。

没有更多广告

您是捐款5美元还是更多?然后,我们将永远不会再向您展示广告,这是我们永恒的感谢!
捐赠前先登录

METAR 傑克遜斯國際機場

傑克遜斯國際機場是Port Moresby,巴布亚新几内亚中的大型机场。 机场有{a,plural,=1{一条跑道} other{#跑道}}: 14L/32R 和 14R/32L

该报告是针对2021年10月21日 14:00, 当地时间上的傑克遜斯國際機場所做的。

机场观察

风来自南 (170°)方向,速度为15 千吨。 已测量20 千吨的阵风。

可见度为10 公里 或者更多。

有疏云,零星散落的云朵在2.500 ft的高度。 没有观察到天花板。

当前天气为阴霾。 温度和风寒是31 °C。 热指数为38。 露点为25 °C,相对湿度为70%。 海平面上的气压为1008 压力 (QNH)。

白天

今天,太阳从05:45升起,在18:06降落。 这适用于傑克遜斯國際機場,世界夏令时可能有所不同。 当地时间与世界标准时间之间的时差为+10 小时。 夏令时目前正在进行中。

公司介绍

我们没有关于这个机场的公司信息。

体会

到Vliegles.nl去找飞行课程,跳伞和其他飞行体验。 浏览页面,了解傑克遜斯國際機場附近所有可用的活动。 你也可以使用搜索功能来寻找你所在地附近的特定飞行课程、跳伞或其他飞行体验。

您是否要在网站上傑克遜斯國際機場飞行的天气? 阅读更多   自由!